CheckWX is a tool to help pilots better visualize weather data.  It is not intended as a substitute for an official pre-flight weather briefing.

08:56:11 UTC

KCHA TAF
Lovell Field Airport
Chattanooga, Tennessee, USA
KCHA 180531Z 1806/1906 VRB02KT P6SM VCTS SCT050CB BKN100 TEMPO 1807/1809 -TSRA SCT035 OVC045CB FM181500 VRB04KT P6SM -SHRA SCT035 BKN100 PROB30 1815/1820 4SM TSRA BR BKN025CB FM182000 18006KT P6SM VCTS SCT040CB BKN120 FM190100 VRB03KT P6SM VCSH SCT050 BKN200

Jun-18@
06:00 UTC

Jun-18 @ 06:00 UTC

Jun-18@
15:00 UTC

Jun-18 @ 15:00 UTC

KCHA 180531Z 1806/1906 VRB02KT P6SM VCTS SCT050CB BKN100
Wind
  • Variable at 2 KTS
Conditions
Area Thunderstorm
Cloud Levels
  • Scattered at 5,000' AGL
  • Broken at 10,000' AGL

Jun-18@
07:00 UTC

Jun-18 @ 07:00 UTC

Jun-18@
09:00 UTC

Jun-18 @ 09:00 UTC

TEMPO 1807/1809 -TSRA SCT035 OVC045CB

Temporary

Temporary Changes expected for less than half the time period

Conditions
Light Thunderstorm, Light Rain
Cloud Levels
  • Scattered at 3,500' AGL
  • Overcast at 4,500' AGL

Jun-18@
15:00 UTC

Jun-18 @ 15:00 UTC

Jun-18@
20:00 UTC

Jun-18 @ 20:00 UTC

FM181500 VRB04KT P6SM -SHRA SCT035 BKN100

From

From Standard forecast or significant change

Wind
  • Variable at 4 KTS
Conditions
Light Rain
Cloud Levels
  • Scattered at 3,500' AGL
  • Broken at 10,000' AGL

Jun-18@
15:00 UTC

Jun-18 @ 15:00 UTC

Jun-18@
20:00 UTC

Jun-18 @ 20:00 UTC

PROB30 1815/1820 4SM TSRA BR BKN025CB

Probable - 30% Likelihood

Probable - 30% Likelihood during this time.

Conditions
Thunderstorm, Rain, Mist
Cloud Levels
  • Broken at 2,500' AGL

Jun-18@
20:00 UTC

Jun-18 @ 20:00 UTC

Jun-19@
01:00 UTC

Jun-19 @ 01:00 UTC

FM182000 18006KT P6SM VCTS SCT040CB BKN120

From

From Standard forecast or significant change

Wind
  • 180° at 6 KTS
Conditions
Area Thunderstorm
Cloud Levels
  • Scattered at 4,000' AGL
  • Broken at 12,000' AGL

Jun-19@
01:00 UTC

Jun-19 @ 01:00 UTC

Jun-19@
06:00 UTC

Jun-19 @ 06:00 UTC

FM190100 VRB03KT P6SM VCSH SCT050 BKN200

From

From Standard forecast or significant change

Wind
  • Variable at 3 KTS
Cloud Levels
  • Scattered at 5,000' AGL
  • Broken at 20,000' AGL